Time;durP1;ratioP1;P1;durP2;ratioP2;P2;SDS_P1;SDS_P2;PMS_P1;PMS_P2;Temp;Humidity;BMP_temperature;BMP_pressure;BME280_temperature;BME280_humidity;BME280_pressure;Samples;Min_cycle;Max_cycle;Signal;HPM_P1;HPM_P2
2023/08/08 00:01:36;;;;;;;2.35;0.70;;;;;;;;;;5016133;28;20285;-67
2023/08/08 00:04:01;;;;;;;2.42;0.70;;;;;;;;;;5013950;28;20045;-67
2023/08/08 00:06:27;;;;;;;1.80;0.57;;;;;;;;;;5016341;28;20140;-67
2023/08/08 00:08:54;;;;;;;2.07;0.70;;;;;;;;;;5014833;28;20030;-66
2023/08/08 00:11:20;;;;;;;2.78;0.80;;;;;;;;;;5016986;28;20268;-67
2023/08/08 00:13:45;;;;;;;2.43;0.60;;;;;;;;;;5015371;28;20684;-68
2023/08/08 00:16:13;;;;;;;2.58;0.70;;;;;;;;;;5016264;28;20272;-69
2023/08/08 00:18:38;;;;;;;2.10;0.63;;;;;;;;;;5015630;28;20013;-67
2023/08/08 00:21:05;;;;;;;2.27;0.60;;;;;;;;;;5014650;28;20063;-66
2023/08/08 00:23:33;;;;;;;2.08;0.50;;;;;;;;;;5019942;28;20264;-67
2023/08/08 00:26:01;;;;;;;2.25;0.60;;;;;;;;;;5015373;28;20892;-68
2023/08/08 00:28:26;;;;;;;2.55;0.60;;;;;;;;;;5032892;28;20036;-69
2023/08/08 00:30:51;;;;;;;2.27;0.60;;;;;;;;;;5018826;28;20435;-68
2023/08/08 00:33:16;;;;;;;2.43;0.70;;;;;;;;;;5013705;28;20249;-68
2023/08/08 00:35:45;;;;;;;2.20;0.60;;;;;;;;;;5018630;28;20802;-67
2023/08/08 00:38:10;;;;;;;2.27;0.70;;;;;;;;;;5016164;28;20024;-67
2023/08/08 00:40:36;;;;;;;2.47;0.67;;;;;;;;;;5012529;28;20049;-67
2023/08/08 00:43:01;;;;;;;2.60;0.70;;;;;;;;;;5012215;28;20280;-68
2023/08/08 00:45:28;;;;;;;2.47;0.80;;;;;;;;;;5012582;28;20257;-67
2023/08/08 00:47:56;;;;;;;3.50;0.63;;;;;;;;;;5015715;28;20291;-67
2023/08/08 00:50:21;;;;;;;1.85;0.60;;;;;;;;;;5014199;28;20536;-68
2023/08/08 00:52:49;;;;;;;2.80;0.70;;;;;;;;;;5012334;28;20025;-68
2023/08/08 00:55:15;;;;;;;1.73;0.50;;;;;;;;;;5017535;28;20530;-68
2023/08/08 00:57:40;;;;;;;1.73;0.52;;;;;;;;;;5016328;28;20260;-67
2023/08/08 01:00:06;;;;;;;2.40;0.70;;;;;;;;;;5031606;28;20113;-68
2023/08/08 01:02:31;;;;;;;2.92;0.73;;;;;;;;;;5017272;28;20041;-67
2023/08/08 01:04:59;;;;;;;2.70;0.70;;;;;;;;;;5012174;28;20023;-68
2023/08/08 01:07:43;;;;;;;2.17;0.47;;;;;;;;;;5016044;28;20276;-66
2023/08/08 01:10:14;;;;;;;2.22;0.60;;;;;;;;;;5027885;28;20083;-69
2023/08/08 01:12:50;;;;;;;2.63;0.60;;;;;;;;;;5015253;28;20018;-68
2023/08/08 01:15:15;;;;;;;1.70;0.43;;;;;;;;;;5039083;28;20029;-68
2023/08/08 01:17:41;;;;;;;2.50;0.80;;;;;;;;;;5015528;28;20107;-68
2023/08/08 01:20:14;;;;;;;3.40;0.80;;;;;;;;;;5016125;28;20804;-68
2023/08/08 01:22:43;;;;;;;3.15;0.80;;;;;;;;;;5014748;28;20029;-67
2023/08/08 01:25:09;;;;;;;2.30;0.50;;;;;;;;;;5016316;28;20014;-66
2023/08/08 01:27:34;;;;;;;3.13;0.80;;;;;;;;;;5005716;28;20029;-67
2023/08/08 01:29:59;;;;;;;2.50;0.70;;;;;;;;;;5022042;28;20028;-66
2023/08/08 01:32:27;;;;;;;1.53;0.50;;;;;;;;;;5006771;28;20026;-68
2023/08/08 01:34:52;;;;;;;2.03;0.65;;;;;;;;;;5019062;28;20244;-66
2023/08/08 01:37:22;;;;;;;2.17;0.50;;;;;;;;;;5013533;28;20075;-67
2023/08/08 01:39:48;;;;;;;2.47;0.70;;;;;;;;;;5031001;28;20648;-69
2023/08/08 01:42:14;;;;;;;2.60;0.80;;;;;;;;;;5021135;28;20021;-67
2023/08/08 01:44:41;;;;;;;2.47;0.70;;;;;;;;;;5018327;28;20626;-68
2023/08/08 01:47:06;;;;;;;2.00;0.60;;;;;;;;;;5015428;28;20132;-69
2023/08/08 01:49:32;;;;;;;2.45;0.68;;;;;;;;;;5009750;28;20031;-65
2023/08/08 01:52:00;;;;;;;2.23;0.50;;;;;;;;;;5013999;28;20021;-67
2023/08/08 01:54:26;;;;;;;3.17;0.70;;;;;;;;;;5016569;28;20291;-67
2023/08/08 01:56:51;;;;;;;2.67;0.70;;;;;;;;;;5018824;28;20807;-68
2023/08/08 01:59:16;;;;;;;1.97;0.60;;;;;;;;;;5009571;28;20271;-69
2023/08/08 02:01:42;;;;;;;2.77;0.80;;;;;;;;;;5015416;28;20312;-68
2023/08/08 02:04:09;;;;;;;2.15;0.70;;;;;;;;;;5017318;28;20033;-68
2023/08/08 02:06:35;;;;;;;2.25;0.60;;;;;;;;;;5013967;28;20029;-69
2023/08/08 02:09:00;;;;;;;2.20;0.70;;;;;;;;;;5014363;28;20029;-68
2023/08/08 02:11:25;;;;;;;1.90;0.60;;;;;;;;;;5011700;28;20291;-66
2023/08/08 02:13:50;;;;;;;2.00;0.60;;;;;;;;;;5020317;28;20026;-68
2023/08/08 02:16:16;;;;;;;2.07;0.60;;;;;;;;;;5015710;28;20051;-68
2023/08/08 02:18:43;;;;;;;2.30;0.80;;;;;;;;;;5022185;28;20272;-67
2023/08/08 02:21:09;;;;;;;2.45;0.77;;;;;;;;;;5013085;28;21530;-69
2023/08/08 02:23:34;;;;;;;2.33;0.68;;;;;;;;;;5008471;28;20017;-68
2023/08/08 02:26:02;;;;;;;2.90;0.80;;;;;;;;;;5015883;28;20393;-68
2023/08/08 02:28:29;;;;;;;2.15;0.73;;;;;;;;;;5010265;28;20837;-68
2023/08/08 02:30:55;;;;;;;2.33;0.80;;;;;;;;;;5014848;28;20556;-68
2023/08/08 02:33:20;;;;;;;2.50;0.60;;;;;;;;;;5027701;28;20021;-68
2023/08/08 02:35:45;;;;;;;2.07;0.63;;;;;;;;;;5010111;28;20029;-67
2023/08/08 02:38:12;;;;;;;2.57;0.77;;;;;;;;;;5014766;28;20022;-68
2023/08/08 02:40:38;;;;;;;2.40;0.60;;;;;;;;;;5014009;28;20275;-68
2023/08/08 02:43:04;;;;;;;2.58;0.80;;;;;;;;;;5017713;28;20026;-68
2023/08/08 02:45:31;;;;;;;2.17;0.63;;;;;;;;;;5011091;28;20075;-67
2023/08/08 02:47:57;;;;;;;2.38;0.70;;;;;;;;;;5015266;28;21218;-67
2023/08/08 02:50:24;;;;;;;2.83;0.60;;;;;;;;;;5013534;28;20029;-68
2023/08/08 02:52:49;;;;;;;2.30;0.70;;;;;;;;;;5008065;28;20033;-68
2023/08/08 02:55:15;;;;;;;2.53;0.60;;;;;;;;;;5013815;28;20029;-67
2023/08/08 02:57:40;;;;;;;2.03;0.55;;;;;;;;;;5012711;28;20273;-67
2023/08/08 03:00:08;;;;;;;2.30;0.70;;;;;;;;;;5024292;28;20021;-67
2023/08/08 03:02:33;;;;;;;2.17;0.57;;;;;;;;;;5014753;28;20065;-68
2023/08/08 03:04:58;;;;;;;2.35;0.65;;;;;;;;;;5015601;28;20109;-69
2023/08/08 03:07:26;;;;;;;2.10;0.67;;;;;;;;;;5006914;28;20044;-67
2023/08/08 03:09:51;;;;;;;2.28;0.73;;;;;;;;;;5020598;28;20354;-67
2023/08/08 03:12:16;;;;;;;2.03;0.60;;;;;;;;;;5017901;28;20025;-68
2023/08/08 03:14:42;;;;;;;2.17;0.65;;;;;;;;;;5012104;28;20288;-68
2023/08/08 03:17:09;;;;;;;2.75;0.68;;;;;;;;;;5013975;28;21229;-69
2023/08/08 03:19:35;;;;;;;2.50;0.65;;;;;;;;;;5014754;28;20041;-68
2023/08/08 03:22:00;;;;;;;2.55;0.68;;;;;;;;;;5014155;28;20499;-69
2023/08/08 03:24:25;;;;;;;2.47;0.60;;;;;;;;;;5011899;28;20033;-69
2023/08/08 03:26:50;;;;;;;2.33;0.70;;;;;;;;;;5014455;28;20737;-67
2023/08/08 03:29:16;;;;;;;2.63;0.70;;;;;;;;;;5012776;28;20715;-67
2023/08/08 03:31:41;;;;;;;2.38;0.52;;;;;;;;;;5012233;28;20754;-67
2023/08/08 03:34:11;;;;;;;2.33;0.70;;;;;;;;;;5016375;28;20667;-68
2023/08/08 03:36:36;;;;;;;2.15;0.60;;;;;;;;;;5015872;28;20033;-68
2023/08/08 03:39:03;;;;;;;2.80;0.70;;;;;;;;;;5012860;28;20028;-68
2023/08/08 03:41:28;;;;;;;2.35;0.70;;;;;;;;;;5016444;28;20752;-68
2023/08/08 03:43:53;;;;;;;2.13;0.70;;;;;;;;;;5013986;28;20032;-68
2023/08/08 03:46:21;;;;;;;2.72;0.77;;;;;;;;;;5021183;28;20671;-67
2023/08/08 03:48:46;;;;;;;2.88;0.70;;;;;;;;;;5009341;28;20148;-68
2023/08/08 03:51:12;;;;;;;2.17;0.67;;;;;;;;;;5017071;28;20047;-68
2023/08/08 03:53:37;;;;;;;2.28;0.70;;;;;;;;;;5007994;28;20107;-68
2023/08/08 03:56:03;;;;;;;3.00;0.90;;;;;;;;;;5012658;28;20017;-68
2023/08/08 03:58:28;;;;;;;2.55;0.70;;;;;;;;;;5018028;28;20885;-68
2023/08/08 04:00:53;;;;;;;2.77;0.77;;;;;;;;;;5027005;28;20070;-68
2023/08/08 04:03:18;;;;;;;1.50;0.50;;;;;;;;;;5016043;28;20024;-67
2023/08/08 04:05:51;;;;;;;2.50;0.70;;;;;;;;;;5008370;28;20053;-68
2023/08/08 04:08:19;;;;;;;2.60;0.77;;;;;;;;;;5014328;28;20758;-68
2023/08/08 04:10:48;;;;;;;2.42;0.70;;;;;;;;;;5015465;28;20030;-68
2023/08/08 04:13:13;;;;;;;5.07;0.80;;;;;;;;;;5013425;28;21243;-69
2023/08/08 04:15:39;;;;;;;2.40;0.75;;;;;;;;;;5013952;28;20037;-68
2023/08/08 04:18:06;;;;;;;1.73;0.57;;;;;;;;;;5024647;28;20104;-69
2023/08/08 04:20:31;;;;;;;2.22;0.68;;;;;;;;;;5028780;28;20111;-68
2023/08/08 04:22:56;;;;;;;2.63;0.60;;;;;;;;;;5010039;28;20029;-69
2023/08/08 04:25:22;;;;;;;1.97;0.70;;;;;;;;;;5011349;28;20025;-66
2023/08/08 04:27:47;;;;;;;2.13;0.70;;;;;;;;;;5020164;28;20029;-67
2023/08/08 04:30:12;;;;;;;3.15;1.00;;;;;;;;;;5032206;28;21013;-68
2023/08/08 04:32:40;;;;;;;2.35;0.60;;;;;;;;;;5012189;28;20036;-68
2023/08/08 04:35:05;;;;;;;3.22;0.90;;;;;;;;;;5016720;28;20503;-67
2023/08/08 04:37:31;;;;;;;2.05;0.55;;;;;;;;;;5015286;28;20116;-68
2023/08/08 04:39:56;;;;;;;3.05;0.80;;;;;;;;;;5013956;28;20910;-69
2023/08/08 04:42:24;;;;;;;2.55;0.60;;;;;;;;;;5016047;28;20483;-68
2023/08/08 04:44:49;;;;;;;2.53;0.60;;;;;;;;;;5024292;28;20033;-68
2023/08/08 04:47:16;;;;;;;1.97;0.60;;;;;;;;;;5022718;28;20769;-68
2023/08/08 04:49:42;;;;;;;2.75;0.70;;;;;;;;;;5024984;28;20265;-67
2023/08/08 04:52:07;;;;;;;2.37;0.57;;;;;;;;;;5022809;28;20025;-69
2023/08/08 04:54:32;;;;;;;2.13;0.60;;;;;;;;;;5014281;28;20025;-67
2023/08/08 04:56:57;;;;;;;1.87;0.57;;;;;;;;;;5008043;28;20432;-68
2023/08/08 04:59:23;;;;;;;2.47;0.70;;;;;;;;;;5035700;28;20270;-68
2023/08/08 05:01:48;;;;;;;3.00;0.80;;;;;;;;;;5011759;28;20339;-69
2023/08/08 05:04:13;;;;;;;2.57;0.80;;;;;;;;;;5012298;28;20101;-67
2023/08/08 05:06:41;;;;;;;3.83;0.70;;;;;;;;;;5020484;28;20706;-69
2023/08/08 05:09:09;;;;;;;2.10;0.63;;;;;;;;;;5017539;28;20080;-69
2023/08/08 05:11:39;;;;;;;2.95;0.60;;;;;;;;;;5013947;28;20536;-69
2023/08/08 05:14:04;;;;;;;4.00;0.80;;;;;;;;;;5017516;28;20885;-68
2023/08/08 05:16:32;;;;;;;3.00;0.70;;;;;;;;;;5018010;28;20057;-67
2023/08/08 05:18:57;;;;;;;3.45;0.70;;;;;;;;;;5013313;28;20024;-67
2023/08/08 05:21:23;;;;;;;2.40;0.70;;;;;;;;;;5015158;28;20054;-67
2023/08/08 05:23:50;;;;;;;2.60;0.80;;;;;;;;;;5013013;28;20021;-69
2023/08/08 05:26:18;;;;;;;2.45;0.70;;;;;;;;;;5017226;28;20033;-68
2023/08/08 05:28:47;;;;;;;1.67;0.60;;;;;;;;;;5023056;28;20044;-67
2023/08/08 05:31:18;;;;;;;2.25;0.70;;;;;;;;;;5014249;28;20018;-67
2023/08/08 05:33:43;;;;;;;2.00;0.65;;;;;;;;;;5009530;28;20036;-68
2023/08/08 05:36:08;;;;;;;3.78;0.80;;;;;;;;;;5005530;28;20933;-67
2023/08/08 05:38:33;;;;;;;1.83;0.60;;;;;;;;;;5009497;28;20633;-69
2023/08/08 05:41:04;;;;;;;1.77;0.50;;;;;;;;;;5015913;28;20354;-68
2023/08/08 05:43:31;;;;;;;1.75;0.55;;;;;;;;;;5008197;28;20257;-67
2023/08/08 05:45:56;;;;;;;3.05;0.80;;;;;;;;;;5012706;28;20129;-67
2023/08/08 05:48:22;;;;;;;3.23;1.00;;;;;;;;;;5014764;28;20017;-69
2023/08/08 05:50:47;;;;;;;2.37;0.90;;;;;;;;;;5012996;28;20263;-69
2023/08/08 05:53:12;;;;;;;2.90;0.73;;;;;;;;;;5014754;28;20811;-69
2023/08/08 05:55:40;;;;;;;3.90;0.60;;;;;;;;;;5021604;28;20100;-68
2023/08/08 05:58:05;;;;;;;2.58;0.73;;;;;;;;;;5012579;28;20333;-68
2023/08/08 06:00:34;;;;;;;1.83;0.60;;;;;;;;;;5011245;28;20248;-67
2023/08/08 06:02:59;;;;;;;1.88;0.50;;;;;;;;;;5016044;28;20327;-68
2023/08/08 06:05:26;;;;;;;2.17;0.70;;;;;;;;;;5016494;28;20014;-67
2023/08/08 06:07:51;;;;;;;2.65;0.77;;;;;;;;;;5020759;28;20037;-67
2023/08/08 06:10:19;;;;;;;1.77;0.60;;;;;;;;;;5021883;28;20026;-67
2023/08/08 06:12:44;;;;;;;3.20;0.88;;;;;;;;;;5012485;28;20256;-68
2023/08/08 06:15:09;;;;;;;2.43;0.60;;;;;;;;;;5013545;28;20083;-67
2023/08/08 06:17:35;;;;;;;2.15;0.60;;;;;;;;;;5016933;28;20024;-67
2023/08/08 06:20:00;;;;;;;2.17;0.60;;;;;;;;;;5015558;28;20757;-68
2023/08/08 06:22:25;;;;;;;2.92;0.80;;;;;;;;;;5020605;28;20260;-69
2023/08/08 06:24:50;;;;;;;1.80;0.52;;;;;;;;;;5017122;28;21159;-67
2023/08/08 06:27:16;;;;;;;2.13;0.70;;;;;;;;;;5011995;28;20732;-68
2023/08/08 06:29:44;;;;;;;3.35;0.80;;;;;;;;;;5013484;28;20254;-68
2023/08/08 06:32:11;;;;;;;2.90;0.60;;;;;;;;;;5013571;28;20658;-68
2023/08/08 06:34:37;;;;;;;3.50;0.93;;;;;;;;;;5011317;28;20021;-68
2023/08/08 06:37:02;;;;;;;4.30;0.93;;;;;;;;;;5010829;28;20109;-68
2023/08/08 06:39:29;;;;;;;3.55;0.82;;;;;;;;;;5015031;28;20810;-67
2023/08/08 06:41:57;;;;;;;2.95;0.80;;;;;;;;;;5014135;28;20590;-68
2023/08/08 06:44:23;;;;;;;1.20;0.50;;;;;;;;;;5016351;28;20041;-68
2023/08/08 06:46:48;;;;;;;2.55;0.60;;;;;;;;;;5017783;28;20679;-68
2023/08/08 06:49:13;;;;;;;2.40;0.70;;;;;;;;;;5014341;28;20025;-69
2023/08/08 06:51:38;;;;;;;2.60;0.70;;;;;;;;;;5013404;28;21139;-69
2023/08/08 06:54:07;;;;;;;2.83;1.07;;;;;;;;;;5011270;28;20094;-68
2023/08/08 06:56:33;;;;;;;2.60;0.68;;;;;;;;;;5004310;28;20272;-68
2023/08/08 06:58:58;;;;;;;2.00;0.60;;;;;;;;;;5016754;28;20032;-68
2023/08/08 07:01:23;;;;;;;2.97;0.73;;;;;;;;;;5011983;28;20124;-66
2023/08/08 07:03:48;;;;;;;2.73;0.80;;;;;;;;;;5014700;28;20045;-68
2023/08/08 07:06:14;;;;;;;3.13;0.70;;;;;;;;;;5015377;28;20774;-68
2023/08/08 07:08:42;;;;;;;2.60;0.75;;;;;;;;;;5012263;28;20113;-68
2023/08/08 07:11:07;;;;;;;2.88;0.80;;;;;;;;;;5022067;28;20025;-68
2023/08/08 07:13:32;;;;;;;3.07;0.83;;;;;;;;;;5012021;28;20065;-68
2023/08/08 07:16:00;;;;;;;2.33;0.70;;;;;;;;;;5015877;28;20342;-68
2023/08/08 07:18:25;;;;;;;2.22;0.70;;;;;;;;;;5023007;28;20268;-67
2023/08/08 07:20:53;;;;;;;2.90;0.70;;;;;;;;;;5028474;28;20049;-68
2023/08/08 07:23:18;;;;;;;2.83;0.80;;;;;;;;;;5014515;28;20064;-68
2023/08/08 07:25:44;;;;;;;2.80;0.90;;;;;;;;;;5017765;28;20577;-69
2023/08/08 07:28:10;;;;;;;2.33;0.70;;;;;;;;;;5018564;28;20041;-68
2023/08/08 07:30:35;;;;;;;3.00;0.80;;;;;;;;;;5028277;28;20084;-68
2023/08/08 07:33:01;;;;;;;3.00;0.80;;;;;;;;;;5013878;28;20144;-68
2023/08/08 07:35:26;;;;;;;2.73;0.73;;;;;;;;;;5011371;28;20030;-68
2023/08/08 07:37:51;;;;;;;1.88;0.52;;;;;;;;;;5011993;28;20266;-68
2023/08/08 07:40:20;;;;;;;3.80;0.80;;;;;;;;;;5014690;28;20031;-69
2023/08/08 07:42:46;;;;;;;3.03;0.90;;;;;;;;;;5013675;28;20256;-68
2023/08/08 07:45:11;;;;;;;2.63;0.70;;;;;;;;;;5016674;28;20273;-68
2023/08/08 07:47:37;;;;;;;3.10;0.88;;;;;;;;;;5010688;28;20537;-68
2023/08/08 07:50:02;;;;;;;2.90;0.90;;;;;;;;;;5016243;28;20084;-68
2023/08/08 07:52:27;;;;;;;3.05;0.70;;;;;;;;;;5017607;28;20041;-68
2023/08/08 07:54:53;;;;;;;3.07;0.80;;;;;;;;;;5020817;28;20025;-68
2023/08/08 07:57:18;;;;;;;2.47;0.63;;;;;;;;;;5024940;28;20271;-68
2023/08/08 07:59:43;;;;;;;1.73;0.53;;;;;;;;;;5008671;28;20018;-69
2023/08/08 08:02:08;;;;;;;2.33;0.70;;;;;;;;;;5015549;28;20287;-66
2023/08/08 08:04:34;;;;;;;3.27;0.90;;;;;;;;;;5011605;28;20018;-69
2023/08/08 08:07:00;;;;;;;2.83;0.80;;;;;;;;;;5024416;28;20029;-66
2023/08/08 08:09:25;;;;;;;2.87;0.80;;;;;;;;;;5012632;28;20018;-67
2023/08/08 08:11:50;;;;;;;2.08;0.60;;;;;;;;;;5019036;28;20240;-67
2023/08/08 08:14:15;;;;;;;2.23;0.60;;;;;;;;;;5020817;28;20078;-67
2023/08/08 08:16:41;;;;;;;3.40;0.87;;;;;;;;;;5011383;28;20264;-67
2023/08/08 08:19:06;;;;;;;3.80;1.00;;;;;;;;;;5024855;28;21022;-68
2023/08/08 08:21:31;;;;;;;8.90;1.40;;;;;;;;;;5007020;28;20299;-67
2023/08/08 08:23:56;;;;;;;2.93;0.83;;;;;;;;;;5017572;28;21141;-69
2023/08/08 08:26:22;;;;;;;3.83;0.90;;;;;;;;;;5017330;28;20290;-68
2023/08/08 08:28:47;;;;;;;2.53;0.80;;;;;;;;;;5014528;28;20022;-67
2023/08/08 08:31:12;;;;;;;2.47;0.70;;;;;;;;;;5017052;28;20302;-69
2023/08/08 08:33:39;;;;;;;3.43;0.80;;;;;;;;;;5019806;28;21404;-68
2023/08/08 08:36:05;;;;;;;2.53;0.73;;;;;;;;;;5016054;28;20259;-68
2023/08/08 08:38:30;;;;;;;2.60;0.70;;;;;;;;;;5012806;28;20026;-68
2023/08/08 08:40:56;;;;;;;3.53;0.80;;;;;;;;;;5015768;28;20110;-68
2023/08/08 08:43:21;;;;;;;2.22;0.70;;;;;;;;;;5020760;28;20029;-68
2023/08/08 08:45:50;;;;;;;2.83;0.83;;;;;;;;;;5014258;28;20028;-67
2023/08/08 08:48:16;;;;;;;2.33;0.68;;;;;;;;;;5010519;28;20044;-67
2023/08/08 08:50:47;;;;;;;2.58;0.70;;;;;;;;;;5014743;28;20038;-68
2023/08/08 08:53:13;;;;;;;2.67;0.80;;;;;;;;;;5021838;28;20029;-68
2023/08/08 08:55:39;;;;;;;2.60;0.80;;;;;;;;;;5016605;28;20018;-67
2023/08/08 08:58:04;;;;;;;2.80;0.77;;;;;;;;;;5022299;28;20014;-68
2023/08/08 09:00:30;;;;;;;2.83;0.55;;;;;;;;;;5019067;28;20558;-68
2023/08/08 09:02:55;;;;;;;3.70;0.70;;;;;;;;;;5017390;28;20112;-68
2023/08/08 09:05:23;;;;;;;3.22;0.85;;;;;;;;;;5017106;28;20009;-69
2023/08/08 09:07:51;;;;;;;2.38;0.70;;;;;;;;;;5020512;28;20029;-69
2023/08/08 09:10:18;;;;;;;2.58;0.70;;;;;;;;;;5021135;28;20051;-67
2023/08/08 09:12:44;;;;;;;2.65;0.80;;;;;;;;;;5015275;28;20033;-67
2023/08/08 09:15:10;;;;;;;2.58;0.70;;;;;;;;;;5015622;28;20113;-67
2023/08/08 09:17:35;;;;;;;1.98;0.60;;;;;;;;;;5013426;28;20029;-67
2023/08/08 09:20:01;;;;;;;2.92;0.80;;;;;;;;;;5004875;28;20061;-69
2023/08/08 09:22:27;;;;;;;3.93;0.63;;;;;;;;;;5014850;28;20071;-67
2023/08/08 09:24:52;;;;;;;3.28;0.77;;;;;;;;;;5017320;28;21370;-68
2023/08/08 09:27:17;;;;;;;2.33;0.63;;;;;;;;;;5018192;28;20030;-67
2023/08/08 09:29:43;;;;;;;2.53;0.73;;;;;;;;;;5017782;28;20280;-68
2023/08/08 09:32:08;;;;;;;2.03;0.55;;;;;;;;;;5007598;28;20269;-68
2023/08/08 09:34:34;;;;;;;2.35;0.70;;;;;;;;;;5014005;28;20141;-68
2023/08/08 09:37:03;;;;;;;3.45;0.65;;;;;;;;;;5020724;28;20029;-66
2023/08/08 09:39:29;;;;;;;3.40;0.80;;;;;;;;;;5017048;28;20035;-67
2023/08/08 09:41:55;;;;;;;2.88;0.73;;;;;;;;;;5033161;28;20077;-69
2023/08/08 09:44:23;;;;;;;3.35;0.82;;;;;;;;;;5013057;28;20029;-68
2023/08/08 09:46:49;;;;;;;1.80;0.60;;;;;;;;;;5012339;28;20780;-68
2023/08/08 09:49:15;;;;;;;2.35;0.70;;;;;;;;;;5014555;28;20028;-68
2023/08/08 09:51:43;;;;;;;2.42;0.70;;;;;;;;;;5013324;28;20351;-67
2023/08/08 09:54:09;;;;;;;3.22;0.82;;;;;;;;;;5011892;28;20028;-68
2023/08/08 09:56:34;;;;;;;2.53;0.70;;;;;;;;;;5005186;28;20014;-68
2023/08/08 09:59:03;;;;;;;2.22;0.68;;;;;;;;;;5013755;28;20124;-67
2023/08/08 10:01:31;;;;;;;2.85;0.85;;;;;;;;;;5011475;28;20072;-67
2023/08/08 10:03:57;;;;;;;3.03;0.80;;;;;;;;;;5018468;28;20755;-68
2023/08/08 10:06:22;;;;;;;3.00;0.88;;;;;;;;;;5008067;28;20056;-67
2023/08/08 10:08:47;;;;;;;2.37;0.70;;;;;;;;;;5008718;28;20075;-68
2023/08/08 10:11:17;;;;;;;2.00;0.63;;;;;;;;;;5013796;28;20884;-68
2023/08/08 10:13:50;;;;;;;2.40;0.77;;;;;;;;;;5016988;28;20057;-67
2023/08/08 10:16:16;;;;;;;2.65;0.80;;;;;;;;;;5013728;28;20029;-68
2023/08/08 10:18:44;;;;;;;2.75;0.65;;;;;;;;;;5017199;28;20025;-67
2023/08/08 10:21:10;;;;;;;3.35;0.93;;;;;;;;;;5026348;28;20148;-68
2023/08/08 10:23:36;;;;;;;3.42;0.80;;;;;;;;;;5009442;28;20518;-68
2023/08/08 10:26:02;;;;;;;1.85;0.60;;;;;;;;;;5016709;28;20837;-67
2023/08/08 10:28:31;;;;;;;2.63;0.80;;;;;;;;;;5012406;28;20049;-67
2023/08/08 10:30:57;;;;;;;3.20;0.70;;;;;;;;;;5014830;28;20017;-69
2023/08/08 10:33:23;;;;;;;2.30;0.70;;;;;;;;;;5011082;28;20079;-68
2023/08/08 10:35:58;;;;;;;3.90;1.67;;;;;;;;;;5007293;28;20013;-69
2023/08/08 10:38:25;;;;;;;2.53;0.65;;;;;;;;;;5007868;28;20041;-67
2023/08/08 10:40:57;;;;;;;2.90;0.80;;;;;;;;;;5013934;28;20680;-68
2023/08/08 10:43:31;;;;;;;2.30;0.75;;;;;;;;;;5018192;28;20344;-69
2023/08/08 10:45:57;;;;;;;2.88;0.60;;;;;;;;;;5016021;28;20017;-68
2023/08/08 10:48:22;;;;;;;2.03;0.70;;;;;;;;;;5017986;28;20671;-67
2023/08/08 10:50:50;;;;;;;1.93;0.60;;;;;;;;;;5017871;28;20553;-66
2023/08/08 10:53:15;;;;;;;1.98;0.55;;;;;;;;;;5014109;28;20248;-68
2023/08/08 10:55:41;;;;;;;2.92;0.73;;;;;;;;;;5016884;28;20018;-69
2023/08/08 10:58:08;;;;;;;2.55;0.70;;;;;;;;;;5014751;28;20688;-67
2023/08/08 11:00:41;;;;;;;2.10;0.52;;;;;;;;;;5049318;28;20025;-68
2023/08/08 11:03:08;;;;;;;2.67;0.70;;;;;;;;;;5018653;28;20025;-66
2023/08/08 11:05:34;;;;;;;2.95;0.80;;;;;;;;;;5009732;28;20025;-66
2023/08/08 11:08:02;;;;;;;2.67;0.70;;;;;;;;;;5013620;28;20083;-66
2023/08/08 11:10:35;;;;;;;2.08;0.70;;;;;;;;;;5015129;28;20022;-67
2023/08/08 11:13:05;;;;;;;2.00;0.57;;;;;;;;;;5012296;28;20095;-66
2023/08/08 11:15:34;;;;;;;2.58;0.70;;;;;;;;;;5014297;28;20017;-66
2023/08/08 11:17:59;;;;;;;1.90;0.60;;;;;;;;;;5011457;28;20014;-66
2023/08/08 11:20:27;;;;;;;2.22;0.60;;;;;;;;;;5013128;28;20061;-68
2023/08/08 11:22:53;;;;;;;2.78;0.85;;;;;;;;;;5011809;28;20041;-66
2023/08/08 11:25:19;;;;;;;2.97;0.80;;;;;;;;;;5011858;28;20032;-67
2023/08/08 11:27:54;;;;;;;3.25;0.80;;;;;;;;;;5002197;28;20018;-66
2023/08/08 11:30:22;;;;;;;2.22;0.60;;;;;;;;;;5011787;28;20030;-66
2023/08/08 11:32:48;;;;;;;2.67;0.80;;;;;;;;;;5015374;28;20113;-66
2023/08/08 11:35:18;;;;;;;3.78;0.70;;;;;;;;;;5015089;28;20035;-67
2023/08/08 11:37:44;;;;;;;2.63;0.70;;;;;;;;;;5012283;28;20025;-68
2023/08/08 11:40:10;;;;;;;2.33;0.68;;;;;;;;;;5008673;28;20025;-68
2023/08/08 11:42:35;;;;;;;2.85;0.70;;;;;;;;;;5009847;28;20041;-67
2023/08/08 11:45:01;;;;;;;5.18;0.60;;;;;;;;;;5009588;28;20121;-66
2023/08/08 11:47:26;;;;;;;1.88;0.60;;;;;;;;;;5013309;28;20053;-67
2023/08/08 11:49:54;;;;;;;1.90;0.60;;;;;;;;;;5020326;28;20029;-67
2023/08/08 11:52:19;;;;;;;2.22;0.70;;;;;;;;;;5010013;28;20118;-67
2023/08/08 11:54:50;;;;;;;3.92;0.80;;;;;;;;;;5040931;28;20025;-67
2023/08/08 11:57:15;;;;;;;2.40;0.80;;;;;;;;;;5038592;28;20017;-67
2023/08/08 11:59:43;;;;;;;2.70;0.70;;;;;;;;;;5034698;28;20024;-67
2023/08/08 12:02:13;;;;;;;2.75;0.70;;;;;;;;;;5016376;28;20014;-67
2023/08/08 12:04:38;;;;;;;2.42;0.70;;;;;;;;;;5019249;28;20075;-68
2023/08/08 12:07:03;;;;;;;3.13;0.80;;;;;;;;;;5014397;28;20022;-67
2023/08/08 12:09:32;;;;;;;3.20;0.90;;;;;;;;;;5014155;28;20260;-67
2023/08/08 12:11:58;;;;;;;2.10;0.70;;;;;;;;;;5015592;28;20257;-67
2023/08/08 12:14:25;;;;;;;2.63;0.70;;;;;;;;;;5013762;28;20029;-66
2023/08/08 12:16:50;;;;;;;2.58;0.77;;;;;;;;;;5016012;28;20711;-67
2023/08/08 12:19:20;;;;;;;2.40;0.70;;;;;;;;;;5011097;28;20017;-68
2023/08/08 12:21:46;;;;;;;3.22;0.65;;;;;;;;;;5009640;28;20280;-68
2023/08/08 12:24:11;;;;;;;2.28;0.70;;;;;;;;;;5014597;28;20017;-68
2023/08/08 12:26:36;;;;;;;2.67;0.80;;;;;;;;;;5006871;28;20018;-68
2023/08/08 12:29:02;;;;;;;2.50;0.70;;;;;;;;;;5009572;28;20941;-68
2023/08/08 12:31:27;;;;;;;2.17;0.67;;;;;;;;;;5007213;28;20418;-68
2023/08/08 12:33:52;;;;;;;2.43;0.63;;;;;;;;;;5018591;28;20256;-68
2023/08/08 12:36:17;;;;;;;2.90;0.80;;;;;;;;;;5008678;28;20396;-67
2023/08/08 12:38:46;;;;;;;2.63;0.73;;;;;;;;;;5013409;28;20064;-68
2023/08/08 12:41:12;;;;;;;4.65;0.80;;;;;;;;;;5011364;28;20240;-66
2023/08/08 12:43:38;;;;;;;4.00;0.80;;;;;;;;;;5013540;28;20104;-67
2023/08/08 12:46:04;;;;;;;2.70;0.80;;;;;;;;;;5010826;28;20420;-68
2023/08/08 12:48:29;;;;;;;3.28;0.85;;;;;;;;;;5016250;28;20132;-67
2023/08/08 12:50:54;;;;;;;2.78;0.80;;;;;;;;;;5019391;28;20043;-67
2023/08/08 12:53:22;;;;;;;2.97;0.70;;;;;;;;;;5019315;28;20025;-67
2023/08/08 12:55:47;;;;;;;2.55;0.90;;;;;;;;;;5015398;28;20267;-67
2023/08/08 12:58:15;;;;;;;2.30;0.63;;;;;;;;;;5017749;28;20044;-65
2023/08/08 13:00:40;;;;;;;2.28;0.70;;;;;;;;;;5011180;28;20028;-68
2023/08/08 13:03:05;;;;;;;2.43;0.70;;;;;;;;;;5019760;28;20022;-68
2023/08/08 13:05:30;;;;;;;2.53;0.70;;;;;;;;;;5014593;28;21171;-67
2023/08/08 13:07:56;;;;;;;2.90;0.80;;;;;;;;;;5016942;28;20028;-68
2023/08/08 13:10:21;;;;;;;2.93;0.80;;;;;;;;;;5017333;28;20024;-66
2023/08/08 13:12:47;;;;;;;1.90;0.60;;;;;;;;;;5014850;28;20020;-69
2023/08/08 13:15:15;;;;;;;2.47;0.65;;;;;;;;;;5021010;28;20021;-67
2023/08/08 13:17:40;;;;;;;3.63;0.82;;;;;;;;;;5016019;28;20028;-67
2023/08/08 13:20:07;;;;;;;2.10;0.63;;;;;;;;;;5011321;28;20053;-67
2023/08/08 13:22:32;;;;;;;3.03;0.80;;;;;;;;;;5018669;28;20009;-67
2023/08/08 13:24:58;;;;;;;2.20;0.80;;;;;;;;;;5011785;28;20013;-68
2023/08/08 13:27:23;;;;;;;2.83;0.90;;;;;;;;;;5010128;28;20861;-68
2023/08/08 13:29:48;;;;;;;2.67;0.70;;;;;;;;;;5017758;28;20295;-63
2023/08/08 13:32:13;;;;;;;2.87;0.80;;;;;;;;;;5014672;28;20264;-62
2023/08/08 13:34:38;;;;;;;3.97;0.80;;;;;;;;;;5012849;28;20027;-64
2023/08/08 13:37:04;;;;;;;2.53;0.70;;;;;;;;;;5013241;28;20052;-63
2023/08/08 13:39:30;;;;;;;2.60;0.80;;;;;;;;;;5013559;28;20643;-63
2023/08/08 13:41:55;;;;;;;2.70;0.90;;;;;;;;;;5013789;28;20072;-64
2023/08/08 13:44:20;;;;;;;3.37;0.70;;;;;;;;;;5012723;28;20306;-64
2023/08/08 13:46:45;;;;;;;3.17;0.90;;;;;;;;;;5013629;28;20314;-64
2023/08/08 13:49:11;;;;;;;4.50;1.00;;;;;;;;;;5016797;28;20445;-65
2023/08/08 13:51:36;;;;;;;3.03;1.00;;;;;;;;;;5045616;28;20052;-66
2023/08/08 13:54:01;;;;;;;2.90;0.90;;;;;;;;;;5014173;28;20033;-64
2023/08/08 13:56:26;;;;;;;3.53;0.87;;;;;;;;;;5014045;28;20283;-64
2023/08/08 13:58:52;;;;;;;2.47;0.80;;;;;;;;;;5013840;28;20260;-63
2023/08/08 14:01:17;;;;;;;3.10;0.90;;;;;;;;;;5012925;28;20028;-66
2023/08/08 14:03:42;;;;;;;4.45;0.95;;;;;;;;;;5012973;28;20109;-65
2023/08/08 14:06:08;;;;;;;2.73;0.90;;;;;;;;;;5015852;28;20032;-64
2023/08/08 14:08:33;;;;;;;2.80;0.80;;;;;;;;;;5014066;28;20112;-65
2023/08/08 14:10:58;;;;;;;2.77;0.70;;;;;;;;;;5015142;28;20020;-64
2023/08/08 14:13:23;;;;;;;4.10;1.13;;;;;;;;;;5015424;28;20263;-64
2023/08/08 14:15:49;;;;;;;2.70;0.80;;;;;;;;;;5013127;28;20021;-64
2023/08/08 14:18:16;;;;;;;3.60;0.80;;;;;;;;;;5015374;28;20259;-65
2023/08/08 14:20:42;;;;;;;3.67;0.93;;;;;;;;;;5030143;28;20050;-65
2023/08/08 14:23:07;;;;;;;3.17;0.80;;;;;;;;;;5015155;28;20482;-64
2023/08/08 14:25:35;;;;;;;2.93;0.70;;;;;;;;;;5014686;28;20259;-64
2023/08/08 14:28:03;;;;;;;3.63;0.80;;;;;;;;;;5015046;28;20438;-63
2023/08/08 14:30:34;;;;;;;2.40;0.70;;;;;;;;;;5003538;28;20021;-62
2023/08/08 14:32:59;;;;;;;3.85;0.93;;;;;;;;;;5016353;28;20341;-65
2023/08/08 14:35:24;;;;;;;2.83;0.80;;;;;;;;;;5018547;28;20013;-64
2023/08/08 14:37:50;;;;;;;4.07;0.93;;;;;;;;;;5013789;28;20935;-64